Time;durP1;ratioP1;P1;durP2;ratioP2;P2;SDS_P1;SDS_P2;PMS_P1;PMS_P2;Temp;Humidity;BMP_temperature;BMP_pressure;BME280_temperature;BME280_humidity;BME280_pressure;Samples;Min_cycle;Max_cycle;Signal;HPM_P1;HPM_P2
2023/09/30 00:01:56;;;;;;;16.00;5.23;;;13.70;99.90;;;;;;5093291;28;20912;-61
2023/09/30 00:04:22;;;;;;;12.50;4.03;;;13.60;99.90;;;;;;5093211;28;20450;-60
2023/09/30 00:06:49;;;;;;;8.40;3.80;;;13.60;99.90;;;;;;5093043;28;20957;-60
2023/09/30 00:09:17;;;;;;;13.53;4.30;;;13.60;99.90;;;;;;5093528;28;20441;-60
2023/09/30 00:11:44;;;;;;;9.87;3.80;;;13.60;99.90;;;;;;5093944;28;20442;-60
2023/09/30 00:14:11;;;;;;;9.90;3.43;;;13.60;99.90;;;;;;5093689;28;20481;-60
2023/09/30 00:16:37;;;;;;;14.23;4.40;;;13.60;99.90;;;;;;5093138;28;20487;-61
2023/09/30 00:19:04;;;;;;;13.47;3.70;;;13.60;99.90;;;;;;5093193;28;20448;-60
2023/09/30 00:21:31;;;;;;;13.43;4.20;;;13.60;99.90;;;;;;5092800;28;20450;-61
2023/09/30 00:23:58;;;;;;;9.83;3.73;;;13.50;99.90;;;;;;5093127;28;20460;-61
2023/09/30 00:26:26;;;;;;;10.20;3.93;;;13.50;99.90;;;;;;5093352;28;20498;-60
2023/09/30 00:28:53;;;;;;;7.20;3.73;;;13.50;99.90;;;;;;5096695;28;20447;-61
2023/09/30 00:31:20;;;;;;;15.30;3.87;;;13.50;99.90;;;;;;5097290;28;20454;-60
2023/09/30 00:33:47;;;;;;;14.73;3.63;;;13.40;99.90;;;;;;5097631;28;20474;-60
2023/09/30 00:36:13;;;;;;;9.37;3.90;;;13.40;99.90;;;;;;5096770;28;20480;-60
2023/09/30 00:38:40;;;;;;;11.27;4.20;;;13.40;99.90;;;;;;5097155;28;20449;-61
2023/09/30 00:41:07;;;;;;;11.43;4.30;;;13.30;99.90;;;;;;5096693;28;20434;-61
2023/09/30 00:43:35;;;;;;;8.33;3.70;;;13.30;99.90;;;;;;5096825;28;20458;-60
2023/09/30 00:46:06;;;;;;;12.43;3.70;;;13.20;99.90;;;;;;5097226;28;20442;-60
2023/09/30 00:48:34;;;;;;;10.07;3.93;;;13.20;99.90;;;;;;5096954;28;20782;-60
2023/09/30 00:51:01;;;;;;;10.37;3.70;;;13.20;99.90;;;;;;5096750;28;20518;-62
2023/09/30 00:53:29;;;;;;;8.23;4.03;;;13.20;99.90;;;;;;5096882;28;20813;-61
2023/09/30 00:55:57;;;;;;;9.97;3.60;;;13.20;99.90;;;;;;5096684;28;20807;-60
2023/09/30 00:58:25;;;;;;;13.40;4.30;;;13.20;99.90;;;;;;5097474;28;20471;-60
2023/09/30 01:00:54;;;;;;;16.63;4.97;;;13.20;99.90;;;;;;5096627;28;20460;-60
2023/09/30 01:03:21;;;;;;;15.17;4.30;;;13.20;99.90;;;;;;5096378;28;20464;-60
2023/09/30 01:05:48;;;;;;;11.70;3.63;;;13.10;99.90;;;;;;5096541;28;20434;-61
2023/09/30 01:08:15;;;;;;;13.70;4.67;;;13.10;99.90;;;;;;5096257;28;20998;-61
2023/09/30 01:10:41;;;;;;;13.43;4.20;;;13.10;99.90;;;;;;5096058;28;20947;-61
2023/09/30 01:13:08;;;;;;;8.73;3.97;;;13.00;99.90;;;;;;5096304;28;20456;-62
2023/09/30 01:15:36;;;;;;;9.10;3.53;;;13.00;99.90;;;;;;5096439;28;20436;-60
2023/09/30 01:18:05;;;;;;;11.40;3.87;;;13.00;99.90;;;;;;5096213;28;20473;-61
2023/09/30 01:20:31;;;;;;;15.33;4.40;;;12.90;99.90;;;;;;5096142;28;20437;-61
2023/09/30 01:22:59;;;;;;;8.30;3.57;;;12.90;99.90;;;;;;5095892;28;20991;-62
2023/09/30 01:25:27;;;;;;;7.93;3.30;;;12.80;99.90;;;;;;5096115;28;20447;-61
2023/09/30 01:27:54;;;;;;;12.10;4.10;;;12.80;99.90;;;;;;5096145;28;20449;-61
2023/09/30 01:30:23;;;;;;;15.87;4.80;;;12.80;99.90;;;;;;5095684;28;20983;-61
2023/09/30 01:32:50;;;;;;;12.70;3.57;;;12.70;99.90;;;;;;5096238;28;20522;-61
2023/09/30 01:35:16;;;;;;;16.00;4.53;;;12.70;99.90;;;;;;5095395;28;20479;-60
2023/09/30 01:37:43;;;;;;;16.00;3.57;;;12.70;99.90;;;;;;5095791;28;20478;-61
2023/09/30 01:40:12;;;;;;;19.00;3.30;;;12.60;99.90;;;;;;5094964;28;20461;-61
2023/09/30 01:42:38;;;;;;;14.27;3.87;;;12.60;99.90;;;;;;5095715;28;20430;-60
2023/09/30 01:45:06;;;;;;;8.20;3.60;;;12.60;99.90;;;;;;5095531;28;20461;-60
2023/09/30 01:47:33;;;;;;;13.70;3.90;;;12.60;99.90;;;;;;5095358;28;20955;-59
2023/09/30 01:50:00;;;;;;;7.97;3.60;;;12.60;99.90;;;;;;5095692;28;20533;-59
2023/09/30 01:52:27;;;;;;;18.30;4.63;;;12.60;99.90;;;;;;5095651;28;20446;-59
2023/09/30 01:54:54;;;;;;;11.80;3.90;;;12.50;99.90;;;;;;5095491;28;20976;-59
2023/09/30 01:57:22;;;;;;;10.07;4.00;;;12.50;99.90;;;;;;5095799;28;20475;-59
2023/09/30 01:59:49;;;;;;;13.07;3.70;;;12.50;99.90;;;;;;5095614;28;20440;-59
2023/09/30 02:02:17;;;;;;;12.37;3.73;;;12.50;99.90;;;;;;5095673;28;20533;-59
2023/09/30 02:04:44;;;;;;;11.87;4.53;;;12.40;99.90;;;;;;5096168;28;20458;-59
2023/09/30 02:07:11;;;;;;;7.50;4.10;;;12.50;99.90;;;;;;5095598;28;20499;-60
2023/09/30 02:09:38;;;;;;;15.07;3.80;;;12.40;99.90;;;;;;5095391;28;20444;-59
2023/09/30 02:12:05;;;;;;;12.00;3.90;;;12.40;99.90;;;;;;5095327;28;20435;-59
2023/09/30 02:14:33;;;;;;;11.20;3.77;;;12.40;99.90;;;;;;5095499;28;20464;-59
2023/09/30 02:16:59;;;;;;;11.20;4.27;;;12.40;99.90;;;;;;5095956;28;20448;-60
2023/09/30 02:19:27;;;;;;;9.50;3.70;;;12.40;99.90;;;;;;5095235;28;20440;-60
2023/09/30 02:21:53;;;;;;;11.13;3.60;;;12.30;99.90;;;;;;5095330;28;20554;-60
2023/09/30 02:24:23;;;;;;;6.83;2.97;;;12.30;99.90;;;;;;5094983;28;20468;-60
2023/09/30 02:26:49;;;;;;;17.13;4.23;;;12.30;99.90;;;;;;5094628;28;20493;-60
2023/09/30 02:29:16;;;;;;;17.70;4.40;;;12.30;99.90;;;;;;5095025;28;20453;-60
2023/09/30 02:31:44;;;;;;;11.03;4.07;;;12.20;99.90;;;;;;5094536;28;20450;-60
2023/09/30 02:34:11;;;;;;;9.67;3.60;;;12.20;99.90;;;;;;5118023;22;20496;-60
2023/09/30 02:36:39;;;;;;;12.70;4.17;;;12.20;99.90;;;;;;5094846;28;20442;-60
2023/09/30 02:39:06;;;;;;;16.53;3.20;;;12.20;99.90;;;;;;5094821;28;20560;-60
2023/09/30 02:41:33;;;;;;;9.93;3.57;;;12.20;99.90;;;;;;5094557;28;20845;-60
2023/09/30 02:44:00;;;;;;;9.10;3.60;;;12.20;99.90;;;;;;5094682;28;20462;-60
2023/09/30 02:46:27;;;;;;;14.67;3.50;;;12.20;99.90;;;;;;5094888;28;20446;-60
2023/09/30 02:48:56;;;;;;;7.00;2.87;;;12.20;99.90;;;;;;5094573;28;20517;-61
2023/09/30 02:51:22;;;;;;;9.23;3.43;;;12.20;99.90;;;;;;5093499;28;20435;-60
2023/09/30 02:53:49;;;;;;;8.80;3.27;;;12.20;99.90;;;;;;5094418;28;20517;-60
2023/09/30 02:56:16;;;;;;;14.60;3.93;;;12.30;99.90;;;;;;5094393;28;20438;-60
2023/09/30 02:58:42;;;;;;;9.03;3.67;;;12.20;99.90;;;;;;5094087;28;20847;-60
2023/09/30 03:01:10;;;;;;;10.77;3.60;;;12.20;99.90;;;;;;5094460;28;20450;-60
2023/09/30 03:03:36;;;;;;;10.20;3.27;;;12.20;99.90;;;;;;5093911;28;20883;-60
2023/09/30 03:06:05;;;;;;;15.83;4.00;;;12.20;99.90;;;;;;5094280;28;20814;-60
2023/09/30 03:08:32;;;;;;;12.13;3.70;;;12.20;99.90;;;;;;5094295;28;20438;-60
2023/09/30 03:10:59;;;;;;;9.73;3.57;;;12.20;99.90;;;;;;5094464;28;20443;-60
2023/09/30 03:13:26;;;;;;;10.13;3.97;;;12.20;99.90;;;;;;5094128;28;20435;-61
2023/09/30 03:15:53;;;;;;;7.70;3.63;;;12.20;99.90;;;;;;5094455;28;20483;-60
2023/09/30 03:18:26;;;;;;;9.00;3.20;;;12.20;99.90;;;;;;5094282;28;20849;-59
2023/09/30 03:20:56;;;;;;;12.50;3.67;;;12.20;99.90;;;;;;5093606;28;20473;-60
2023/09/30 03:23:28;;;;;;;11.03;3.83;;;12.20;99.90;;;;;;5093474;28;20560;-60
2023/09/30 03:25:57;;;;;;;10.00;3.50;;;12.20;99.90;;;;;;5095237;28;20426;-59
2023/09/30 03:28:24;;;;;;;8.60;3.90;;;12.20;99.90;;;;;;5095889;28;20494;-59
2023/09/30 03:30:51;;;;;;;8.60;3.60;;;12.20;99.90;;;;;;5094722;28;20451;-60
2023/09/30 03:33:17;;;;;;;13.30;4.83;;;12.20;99.90;;;;;;5094114;28;20442;-60
2023/09/30 03:35:45;;;;;;;12.03;4.33;;;12.20;99.90;;;;;;5094097;28;20434;-59
2023/09/30 03:38:12;;;;;;;10.33;3.60;;;12.20;99.90;;;;;;5094136;28;20476;-59
2023/09/30 03:40:47;;;;;;;10.87;4.17;;;12.30;99.90;;;;;;5094436;28;20447;-59
2023/09/30 03:43:14;;;;;;;14.70;3.83;;;12.30;99.90;;;;;;5094120;28;20424;-59
2023/09/30 03:45:41;;;;;;;15.10;4.60;;;12.30;99.90;;;;;;5093799;28;20447;-59
2023/09/30 03:48:09;;;;;;;10.43;3.43;;;12.30;99.90;;;;;;5093828;28;20431;-58
2023/09/30 03:50:37;;;;;;;8.87;3.40;;;12.30;99.90;;;;;;5093993;28;20455;-61
2023/09/30 03:53:07;;;;;;;11.23;3.90;;;12.30;99.90;;;;;;5093463;28;20442;-60
2023/09/30 03:55:34;;;;;;;9.60;3.10;;;12.30;99.90;;;;;;5093035;28;20462;-60
2023/09/30 03:58:02;;;;;;;11.83;4.57;;;12.20;99.90;;;;;;5093357;28;20478;-59
2023/09/30 04:03:00;;;;;;;13.00;3.70;;;12.10;99.90;;;;;;5117239;22;21034;-57
2023/09/30 04:05:29;;;;;;;12.97;4.30;;;12.10;99.90;;;;;;5095467;28;20443;-57
2023/09/30 04:07:56;;;;;;;13.87;4.30;;;12.10;99.90;;;;;;5098608;28;20484;-57
2023/09/30 04:12:16;;;;;;;9.60;4.07;;;12.10;99.90;;;;;;5119988;27;20618;-58
2023/09/30 04:14:43;;;;;;;15.93;4.33;;;12.10;99.90;;;;;;5118873;28;20547;-57
2023/09/30 04:17:10;;;;;;;12.50;4.20;;;12.10;99.90;;;;;;5117195;28;20444;-57
2023/09/30 04:19:37;;;;;;;13.67;4.80;;;12.10;99.90;;;;;;5112972;28;20451;-57
2023/09/30 04:22:04;;;;;;;10.20;4.03;;;12.10;99.90;;;;;;5110962;28;20787;-57
2023/09/30 04:24:30;;;;;;;15.23;4.87;;;12.10;99.90;;;;;;5110963;28;20495;-57
2023/09/30 04:27:02;;;;;;;16.50;4.53;;;12.10;99.90;;;;;;5110956;28;20433;-57
2023/09/30 04:29:31;;;;;;;12.70;5.33;;;12.10;99.90;;;;;;5110979;28;20431;-57
2023/09/30 04:31:58;;;;;;;8.73;4.37;;;12.10;99.90;;;;;;5111021;28;20519;-57
2023/09/30 04:34:25;;;;;;;8.67;4.10;;;12.10;99.90;;;;;;5110777;28;20445;-57
2023/09/30 04:36:52;;;;;;;11.67;4.80;;;12.20;99.90;;;;;;5110743;28;20446;-57
2023/09/30 04:39:19;;;;;;;10.80;4.10;;;12.20;99.90;;;;;;5110595;28;20491;-57
2023/09/30 04:41:46;;;;;;;11.50;4.30;;;12.10;99.90;;;;;;5110335;28;20994;-57
2023/09/30 04:44:13;;;;;;;11.30;4.20;;;12.20;99.90;;;;;;5110647;28;20448;-57
2023/09/30 04:46:45;;;;;;;17.67;5.07;;;12.20;99.90;;;;;;5110665;28;20443;-57
2023/09/30 04:49:14;;;;;;;12.27;4.90;;;12.20;99.90;;;;;;5110491;28;20481;-57
2023/09/30 04:51:41;;;;;;;10.87;5.63;;;12.20;99.90;;;;;;5111010;28;20511;-57
2023/09/30 04:54:08;;;;;;;8.40;4.40;;;12.20;99.90;;;;;;5110431;28;20438;-57
2023/09/30 04:56:35;;;;;;;15.87;5.03;;;12.20;99.90;;;;;;5110239;28;20449;-55
2023/09/30 04:59:02;;;;;;;11.27;4.50;;;12.20;99.90;;;;;;5110184;28;20480;-58
2023/09/30 05:01:29;;;;;;;19.17;5.63;;;12.30;99.90;;;;;;5110028;28;20468;-56
2023/09/30 05:03:57;;;;;;;11.57;5.63;;;12.30;99.90;;;;;;5110063;28;20435;-57
2023/09/30 05:06:24;;;;;;;13.33;4.60;;;12.30;99.90;;;;;;5109872;28;20447;-57
2023/09/30 05:08:50;;;;;;;13.77;4.10;;;12.20;99.90;;;;;;5110635;28;20454;-58
2023/09/30 05:11:17;;;;;;;9.70;4.60;;;12.20;99.90;;;;;;5109926;28;20498;-56
2023/09/30 05:13:44;;;;;;;10.73;4.53;;;12.20;99.90;;;;;;5109817;28;20442;-57
2023/09/30 05:16:13;;;;;;;11.97;4.97;;;12.20;99.90;;;;;;5110189;28;20547;-56
2023/09/30 05:18:39;;;;;;;11.50;4.30;;;12.10;99.90;;;;;;5110541;28;21011;-57
2023/09/30 05:21:08;;;;;;;10.03;5.10;;;12.10;99.90;;;;;;5111118;28;20478;-58
2023/09/30 05:23:35;;;;;;;15.50;4.97;;;12.10;99.90;;;;;;5097848;28;20445;-57
2023/09/30 05:26:02;;;;;;;14.73;5.73;;;12.10;99.90;;;;;;5096582;28;20443;-58
2023/09/30 05:28:29;;;;;;;9.43;4.57;;;12.10;99.90;;;;;;5097013;28;20467;-56
2023/09/30 05:30:56;;;;;;;9.73;4.73;;;12.10;99.90;;;;;;5096152;28;20988;-57
2023/09/30 05:33:22;;;;;;;11.00;5.20;;;12.10;99.90;;;;;;5096215;28;20927;-58
2023/09/30 05:35:49;;;;;;;14.13;5.77;;;12.10;99.90;;;;;;5097239;28;20444;-58
2023/09/30 05:38:19;;;;;;;13.37;5.07;;;12.10;99.90;;;;;;5104951;28;20454;-58
2023/09/30 05:40:46;;;;;;;9.57;4.40;;;12.10;99.90;;;;;;5104071;28;20450;-58
2023/09/30 05:43:14;;;;;;;12.70;6.13;;;12.10;99.90;;;;;;5097866;28;20435;-58
2023/09/30 05:45:48;;;;;;;12.40;5.03;;;12.10;99.90;;;;;;5096664;28;20466;-58
2023/09/30 05:48:16;;;;;;;9.77;4.53;;;12.10;99.90;;;;;;5098026;28;20424;-58
2023/09/30 05:50:43;;;;;;;11.20;4.83;;;12.10;99.90;;;;;;5097540;28;20481;-58
2023/09/30 05:53:11;;;;;;;12.43;4.37;;;12.10;99.90;;;;;;5097059;28;20497;-57
2023/09/30 05:55:42;;;;;;;16.73;5.67;;;12.20;99.90;;;;;;5096160;28;20440;-58
2023/09/30 05:58:08;;;;;;;13.60;6.13;;;12.20;99.90;;;;;;5096691;28;20452;-57
2023/09/30 06:00:35;;;;;;;11.37;5.10;;;12.20;99.90;;;;;;5096349;28;20436;-58
2023/09/30 06:03:04;;;;;;;10.10;5.30;;;12.30;99.90;;;;;;5096734;28;20441;-57
2023/09/30 06:05:31;;;;;;;14.20;5.00;;;12.30;99.90;;;;;;5096307;28;20542;-58
2023/09/30 06:07:58;;;;;;;10.47;5.60;;;12.40;99.90;;;;;;5096133;28;20585;-58
2023/09/30 06:10:25;;;;;;;10.60;4.70;;;12.40;99.90;;;;;;5097193;28;20455;-58
2023/09/30 06:12:54;;;;;;;8.13;5.63;;;12.50;99.90;;;;;;5096339;28;20468;-57
2023/09/30 06:15:25;;;;;;;14.73;4.33;;;12.50;99.90;;;;;;5095942;28;20452;-58
2023/09/30 06:17:52;;;;;;;11.77;4.80;;;12.60;99.90;;;;;;5095633;28;20958;-56
2023/09/30 06:20:19;;;;;;;12.50;4.63;;;12.60;99.90;;;;;;5094781;28;20938;-58
2023/09/30 06:22:49;;;;;;;10.37;5.20;;;12.70;99.90;;;;;;5094762;28;20989;-56
2023/09/30 06:25:16;;;;;;;16.33;4.40;;;12.70;99.90;;;;;;5095210;28;20449;-56
2023/09/30 06:27:43;;;;;;;11.40;4.50;;;12.70;99.90;;;;;;5095148;28;20449;-57
2023/09/30 06:30:13;;;;;;;14.17;4.80;;;12.80;99.90;;;;;;5094852;28;20884;-58
2023/09/30 06:32:40;;;;;;;17.93;3.90;;;12.80;99.90;;;;;;5095236;28;20516;-57
2023/09/30 06:35:10;;;;;;;16.63;5.60;;;12.80;99.90;;;;;;5094315;28;20951;-57
2023/09/30 06:37:37;;;;;;;8.37;4.67;;;12.80;99.90;;;;;;5095754;28;20443;-58
2023/09/30 06:40:04;;;;;;;12.30;4.33;;;12.80;99.90;;;;;;5095632;28;20445;-58
2023/09/30 06:42:31;;;;;;;9.80;4.30;;;12.90;99.90;;;;;;5095809;28;20461;-58
2023/09/30 06:44:58;;;;;;;8.77;3.63;;;13.00;99.90;;;;;;5095931;28;20450;-58
2023/09/30 06:47:27;;;;;;;7.80;3.67;;;13.00;99.90;;;;;;5096490;28;20532;-58
2023/09/30 06:49:54;;;;;;;7.50;3.87;;;13.10;99.90;;;;;;5096556;28;20446;-58
2023/09/30 06:52:21;;;;;;;10.00;3.80;;;13.20;99.90;;;;;;5098345;28;20478;-57
2023/09/30 06:54:47;;;;;;;8.00;3.70;;;13.30;99.90;;;;;;5099071;28;20450;-57
2023/09/30 06:57:14;;;;;;;7.70;3.93;;;13.40;99.90;;;;;;5098618;28;20445;-57
2023/09/30 06:59:41;;;;;;;8.67;3.40;;;13.50;99.90;;;;;;5101374;28;20451;-57
2023/09/30 07:02:08;;;;;;;13.20;5.17;;;13.60;99.90;;;;;;5097838;28;20987;-57
2023/09/30 07:04:36;;;;;;;7.10;3.97;;;13.70;99.90;;;;;;5098397;28;21009;-57
2023/09/30 07:07:03;;;;;;;7.03;3.40;;;13.80;99.90;;;;;;5095188;28;20513;-58
2023/09/30 07:09:30;;;;;;;8.00;3.30;;;13.90;99.90;;;;;;5096192;28;20485;-57
2023/09/30 07:11:56;;;;;;;12.60;4.00;;;13.90;99.90;;;;;;5095746;28;20562;-57
2023/09/30 07:14:23;;;;;;;10.00;3.80;;;14.00;99.90;;;;;;5096958;28;20450;-58
2023/09/30 07:16:50;;;;;;;8.70;3.53;;;14.10;99.90;;;;;;5095635;28;20935;-58
2023/09/30 07:19:17;;;;;;;6.90;3.20;;;14.30;99.90;;;;;;5096452;28;20844;-57
2023/09/30 07:21:46;;;;;;;11.10;3.10;;;14.30;99.90;;;;;;5095843;28;20477;-56
2023/09/30 07:24:13;;;;;;;10.57;3.27;;;14.50;99.90;;;;;;5096427;28;20532;-56
2023/09/30 07:26:39;;;;;;;7.30;4.13;;;14.60;99.90;;;;;;5095774;28;20943;-58
2023/09/30 07:29:06;;;;;;;8.37;3.33;;;14.70;99.90;;;;;;5095981;28;20442;-58
2023/09/30 07:31:36;;;;;;;8.97;4.43;;;14.80;99.90;;;;;;5097385;28;20489;-58
2023/09/30 07:34:02;;;;;;;10.53;3.40;;;15.00;99.90;;;;;;5097713;28;20450;-57
2023/09/30 07:36:29;;;;;;;8.40;3.13;;;15.10;99.90;;;;;;5097379;28;20948;-57
2023/09/30 07:38:57;;;;;;;5.53;2.60;;;15.30;99.90;;;;;;5096079;28;20443;-58
2023/09/30 07:41:24;;;;;;;7.50;3.00;;;15.40;99.90;;;;;;5094346;28;20464;-58
2023/09/30 07:43:51;;;;;;;7.63;2.70;;;15.50;99.90;;;;;;5093799;28;20457;-57
2023/09/30 07:46:17;;;;;;;9.60;3.13;;;15.70;99.90;;;;;;5093169;28;20440;-58
2023/09/30 07:48:44;;;;;;;10.77;3.03;;;15.70;99.90;;;;;;5093187;28;20443;-58
2023/09/30 07:51:13;;;;;;;10.07;2.83;;;15.90;99.90;;;;;;5093201;28;20469;-56
2023/09/30 07:53:40;;;;;;;6.17;2.43;;;16.00;99.90;;;;;;5093469;28;20796;-58
2023/09/30 07:56:08;;;;;;;5.20;3.03;;;16.10;99.90;;;;;;5093266;28;20972;-58
2023/09/30 07:58:35;;;;;;;10.50;2.93;;;16.20;99.90;;;;;;5093618;28;20453;-59
2023/09/30 08:01:04;;;;;;;5.10;2.30;;;16.40;99.90;;;;;;5093352;28;20464;-57
2023/09/30 08:03:30;;;;;;;4.83;2.50;;;16.50;99.90;;;;;;5094240;28;20444;-58
2023/09/30 08:05:57;;;;;;;6.63;2.20;;;16.50;99.90;;;;;;5094259;28;20510;-57
2023/09/30 08:08:25;;;;;;;3.50;2.17;;;16.50;99.90;;;;;;5094214;28;20448;-58
2023/09/30 08:10:55;;;;;;;9.10;2.50;;;16.60;99.90;;;;;;5093081;28;20471;-57
2023/09/30 08:13:23;;;;;;;5.77;2.03;;;16.60;99.90;;;;;;5093725;28;20463;-59
2023/09/30 08:15:50;;;;;;;11.20;2.83;;;16.70;99.90;;;;;;5093870;28;20508;-57
2023/09/30 08:18:17;;;;;;;10.00;2.93;;;16.80;99.90;;;;;;5093491;28;20467;-57
2023/09/30 08:20:44;;;;;;;3.03;1.70;;;17.00;99.90;;;;;;5093192;28;20514;-57
2023/09/30 08:23:11;;;;;;;8.83;4.60;;;17.20;99.90;;;;;;5093308;28;20448;-57
2023/09/30 08:25:38;;;;;;;5.03;2.10;;;17.30;99.90;;;;;;5093206;28;20528;-58
2023/09/30 08:28:05;;;;;;;8.20;2.50;;;17.30;99.90;;;;;;5093242;28;20442;-58
2023/09/30 08:30:35;;;;;;;7.67;2.40;;;17.40;99.90;;;;;;5092849;28;20442;-58
2023/09/30 08:33:03;;;;;;;13.70;3.67;;;17.50;99.90;;;;;;5092566;28;20489;-58
2023/09/30 08:35:31;;;;;;;8.67;2.43;;;17.60;99.90;;;;;;5092981;28;20883;-58
2023/09/30 08:37:59;;;;;;;6.13;2.23;;;17.70;99.90;;;;;;5093128;28;20449;-59
2023/09/30 08:40:26;;;;;;;5.90;2.53;;;17.70;99.90;;;;;;5093132;28;20540;-59
2023/09/30 08:42:53;;;;;;;9.37;3.20;;;17.70;99.90;;;;;;5093880;28;20461;-57
2023/09/30 08:45:20;;;;;;;7.73;3.20;;;17.80;99.90;;;;;;5092927;28;20950;-58
2023/09/30 08:47:50;;;;;;;6.30;2.60;;;17.90;99.90;;;;;;5092896;28;20442;-57
2023/09/30 08:50:18;;;;;;;7.83;2.30;;;17.90;99.90;;;;;;5093160;28;20459;-58
2023/09/30 08:52:45;;;;;;;8.33;2.70;;;18.00;99.90;;;;;;5092812;28;20589;-59
2023/09/30 08:55:13;;;;;;;4.90;2.63;;;18.00;99.90;;;;;;5093376;28;20952;-58
2023/09/30 08:57:41;;;;;;;6.90;2.77;;;18.00;99.90;;;;;;5094661;28;20449;-58
2023/09/30 09:00:11;;;;;;;5.47;2.27;;;18.10;99.90;;;;;;5096529;28;20460;-59
2023/09/30 09:02:38;;;;;;;8.00;2.63;;;18.10;99.90;;;;;;5096700;28;20454;-58
2023/09/30 09:05:07;;;;;;;9.93;3.40;;;18.10;99.90;;;;;;5097145;28;20500;-59
2023/09/30 09:07:34;;;;;;;7.20;2.47;;;18.10;99.90;;;;;;5097499;28;20438;-58
2023/09/30 09:10:05;;;;;;;4.77;2.30;;;18.10;99.40;;;;;;5097152;28;20525;-59
2023/09/30 09:12:33;;;;;;;7.47;3.23;;;18.00;99.10;;;;;;5097005;28;20559;-59
2023/09/30 09:15:00;;;;;;;6.43;2.73;;;17.90;98.90;;;;;;5097005;28;20442;-59
2023/09/30 09:17:41;;;;;;;6.90;2.67;;;17.90;99.10;;;;;;5097573;28;20438;-59
2023/09/30 09:20:12;;;;;;;5.20;2.50;;;18.00;98.90;;;;;;5098240;28;20418;-59
2023/09/30 09:22:40;;;;;;;12.47;2.67;;;18.00;98.40;;;;;;5098642;28;20515;-58
2023/09/30 09:25:07;;;;;;;5.43;2.43;;;17.90;97.40;;;;;;5099452;28;20468;-58
2023/09/30 09:27:35;;;;;;;6.90;2.30;;;17.90;97.30;;;;;;5101757;28;20989;-59
2023/09/30 09:30:15;;;;;;;10.13;3.20;;;17.90;97.30;;;;;;5103167;28;20435;-58
2023/09/30 09:32:53;;;;;;;5.40;2.00;;;18.10;97.20;;;;;;5103409;28;20493;-59
2023/09/30 09:35:22;;;;;;;5.50;2.13;;;18.20;96.90;;;;;;5103421;28;20769;-59
2023/09/30 09:37:56;;;;;;;6.33;2.77;;;18.30;96.10;;;;;;5103716;28;20439;-59
2023/09/30 09:40:24;;;;;;;7.40;2.70;;;18.30;95.90;;;;;;5106771;28;20430;-59
2023/09/30 09:42:54;;;;;;;8.13;2.27;;;18.30;95.70;;;;;;5100326;28;20459;-58
2023/09/30 09:45:23;;;;;;;6.97;2.33;;;18.30;95.60;;;;;;5096701;28;20453;-59
2023/09/30 09:47:51;;;;;;;4.90;1.73;;;18.20;95.10;;;;;;5096627;28;20519;-60
2023/09/30 09:50:18;;;;;;;7.23;2.50;;;18.00;94.70;;;;;;5096142;28;20950;-59
2023/09/30 09:52:49;;;;;;;5.63;2.00;;;17.90;94.70;;;;;;5096403;28;20492;-58
2023/09/30 09:55:17;;;;;;;7.00;2.60;;;17.70;94.90;;;;;;5096400;28;20867;-58
2023/09/30 09:57:45;;;;;;;5.10;2.37;;;17.70;95.10;;;;;;5096814;28;20515;-59
2023/09/30 10:00:14;;;;;;;8.30;2.40;;;17.60;95.20;;;;;;5098216;28;20445;-59
2023/09/30 10:02:41;;;;;;;7.10;2.63;;;17.60;95.00;;;;;;5095996;28;20549;-59
2023/09/30 10:05:11;;;;;;;4.97;2.23;;;17.50;94.90;;;;;;5096169;28;20453;-57
2023/09/30 10:07:43;;;;;;;5.00;1.87;;;17.50;95.00;;;;;;5096006;28;20445;-57
2023/09/30 10:10:14;;;;;;;5.40;2.53;;;17.50;94.90;;;;;;5095522;28;20461;-59
2023/09/30 10:12:42;;;;;;;4.83;2.13;;;17.70;94.90;;;;;;5095143;28;20482;-59
2023/09/30 10:15:39;;;;;;;4.73;2.03;;;17.90;94.50;;;;;;5095845;28;20452;-59
2023/09/30 10:18:09;;;;;;;6.67;2.30;;;18.30;93.60;;;;;;5095899;28;20495;-57
2023/09/30 10:20:37;;;;;;;7.23;2.80;;;18.50;92.20;;;;;;5095858;28;20438;-58
2023/09/30 10:23:24;;;;;;;4.63;2.40;;;18.60;91.30;;;;;;5096941;28;20431;-60
2023/09/30 10:25:57;;;;;;;6.13;2.30;;;18.70;90.80;;;;;;5099155;28;20414;-59
2023/09/30 10:28:34;;;;;;;6.07;2.07;;;18.90;90.60;;;;;;5100013;28;20459;-59
2023/09/30 10:31:12;;;;;;;7.03;2.47;;;19.20;90.00;;;;;;5100670;28;20465;-57
2023/09/30 10:34:17;;;;;;;6.60;2.80;;;19.40;87.10;;;;;;5100561;28;20477;-59
2023/09/30 10:36:44;;;;;;;4.10;1.70;;;19.50;83.80;;;;;;5097806;28;20983;-59
2023/09/30 10:39:13;;;;;;;8.60;2.30;;;19.50;81.80;;;;;;5094978;28;20440;-58
2023/09/30 10:41:51;;;;;;;5.63;2.10;;;19.60;80.50;;;;;;5095554;28;20494;-59
2023/09/30 10:44:34;;;;;;;4.30;1.80;;;19.60;77.80;;;;;;5094926;28;20422;-58
2023/09/30 10:47:21;;;;;;;4.27;1.67;;;19.60;76.40;;;;;;5094533;28;20625;-58
2023/09/30 10:49:48;;;;;;;9.73;2.77;;;19.60;74.70;;;;;;5094967;28;20437;-59
2023/09/30 10:52:23;;;;;;;4.90;1.60;;;19.70;74.70;;;;;;5094871;28;20487;-59
2023/09/30 10:54:50;;;;;;;6.20;2.23;;;19.80;73.50;;;;;;5095674;28;20886;-58
2023/09/30 10:57:29;;;;;;;2.70;1.90;;;19.80;72.10;;;;;;5095288;28;20806;-58
2023/09/30 11:00:11;;;;;;;5.77;1.80;;;19.70;71.30;;;;;;5095154;28;20908;-58
2023/09/30 11:02:49;;;;;;;5.40;1.90;;;19.50;70.90;;;;;;5094594;28;20454;-58
2023/09/30 11:05:16;;;;;;;5.77;1.80;;;19.40;70.40;;;;;;5094757;28;20859;-58
2023/09/30 11:07:44;;;;;;;5.63;1.60;;;19.30;70.10;;;;;;5095245;28;20448;-59
2023/09/30 11:10:12;;;;;;;6.27;1.70;;;19.30;69.80;;;;;;5096048;28;20465;-60
2023/09/30 11:12:53;;;;;;;5.00;1.90;;;19.40;69.30;;;;;;5096157;28;20573;-59
2023/09/30 11:15:21;;;;;;;4.97;2.43;;;19.40;68.80;;;;;;5097549;28;20429;-58
2023/09/30 11:17:47;;;;;;;4.37;2.20;;;19.40;68.60;;;;;;5098828;28;20453;-58
2023/09/30 11:20:14;;;;;;;4.43;2.00;;;19.50;68.60;;;;;;5096987;28;20536;-59
2023/09/30 11:22:41;;;;;;;11.47;3.13;;;19.40;67.00;;;;;;5098152;28;20468;-59
2023/09/30 11:25:17;;;;;;;5.60;2.77;;;19.40;65.50;;;;;;5098426;28;20451;-58
2023/09/30 11:27:46;;;;;;;3.87;2.20;;;19.40;65.10;;;;;;5098280;28;20426;-58
2023/09/30 11:30:14;;;;;;;4.93;2.07;;;19.50;64.20;;;;;;5096827;28;20455;-59
2023/09/30 11:32:42;;;;;;;4.97;1.90;;;19.60;63.70;;;;;;5096126;28;21009;-59
2023/09/30 11:35:23;;;;;;;4.80;1.93;;;19.60;63.30;;;;;;5095709;28;20442;-58
2023/09/30 11:37:52;;;;;;;5.23;1.90;;;19.50;63.10;;;;;;5094459;28;20436;-58
2023/09/30 11:40:20;;;;;;;4.37;1.50;;;19.40;63.70;;;;;;5095004;28;20488;-58
2023/09/30 11:43:11;;;;;;;3.80;1.67;;;19.40;62.80;;;;;;5095350;28;20534;-58
2023/09/30 11:45:37;;;;;;;4.83;1.80;;;19.50;62.60;;;;;;5095357;28;20426;-57
2023/09/30 11:48:19;;;;;;;3.77;1.50;;;19.60;62.00;;;;;;5094446;28;20448;-57
2023/09/30 11:50:47;;;;;;;4.07;2.20;;;19.70;61.70;;;;;;5094100;28;20796;-59
2023/09/30 11:53:17;;;;;;;3.70;1.90;;;19.70;61.30;;;;;;5094675;28;21029;-57
2023/09/30 11:55:46;;;;;;;5.20;1.87;;;19.60;61.00;;;;;;5096613;28;20438;-60
2023/09/30 11:58:18;;;;;;;3.30;1.30;;;19.60;61.40;;;;;;5095716;28;20498;-59
2023/09/30 12:00:45;;;;;;;2.60;1.70;;;19.60;61.40;;;;;;5098985;28;20453;-59
2023/09/30 12:03:12;;;;;;;6.53;1.60;;;19.70;61.60;;;;;;5098157;28;20804;-58
2023/09/30 12:05:38;;;;;;;4.67;1.50;;;19.80;61.10;;;;;;5098608;28;20442;-58
2023/09/30 12:08:06;;;;;;;6.57;1.43;;;19.80;59.80;;;;;;5100437;28;20535;-58
2023/09/30 12:10:33;;;;;;;4.80;1.80;;;19.80;57.70;;;;;;5102514;28;20461;-59
2023/09/30 12:13:00;;;;;;;2.77;1.83;;;19.80;56.90;;;;;;5103357;28;20482;-58
2023/09/30 12:15:28;;;;;;;4.73;2.07;;;19.70;56.60;;;;;;5102916;28;20434;-59
2023/09/30 12:17:55;;;;;;;6.37;2.40;;;19.70;56.90;;;;;;5101973;28;20794;-59
2023/09/30 12:20:21;;;;;;;5.53;2.00;;;19.80;57.60;;;;;;5096213;28;20445;-59
2023/09/30 12:22:48;;;;;;;7.10;1.90;;;19.80;58.60;;;;;;5094934;28;20508;-59
2023/09/30 12:25:16;;;;;;;5.10;2.37;;;19.80;59.10;;;;;;5095303;28;20480;-59
2023/09/30 12:27:44;;;;;;;8.00;2.13;;;19.90;59.20;;;;;;5094880;28;20448;-59
2023/09/30 12:30:13;;;;;;;6.90;1.80;;;19.90;58.90;;;;;;5094635;28;20817;-59
2023/09/30 12:32:41;;;;;;;5.03;1.90;;;19.90;58.60;;;;;;5095766;28;20475;-59
2023/09/30 12:35:10;;;;;;;4.10;1.30;;;20.00;57.80;;;;;;5098682;28;20447;-59
2023/09/30 12:37:38;;;;;;;4.93;2.00;;;20.00;57.40;;;;;;5099517;28;20505;-60
2023/09/30 12:40:06;;;;;;;3.30;1.67;;;19.90;57.00;;;;;;5098385;28;20828;-58
2023/09/30 12:42:34;;;;;;;6.00;1.57;;;19.90;56.80;;;;;;5097920;28;20828;-59
2023/09/30 12:45:01;;;;;;;3.30;1.50;;;19.90;56.90;;;;;;5098641;28;20442;-58
2023/09/30 12:47:28;;;;;;;4.07;1.60;;;20.00;57.30;;;;;;5098150;28;20472;-59
2023/09/30 12:49:56;;;;;;;5.40;2.23;;;19.90;57.60;;;;;;5098116;28;20468;-59
2023/09/30 12:52:24;;;;;;;3.13;2.00;;;19.90;57.90;;;;;;5098640;28;20469;-59
2023/09/30 12:54:50;;;;;;;4.93;2.00;;;19.90;58.30;;;;;;5098206;28;20507;-57